createdAt,value
2022-12-14T00:02:06.688Z,100793.88
2022-12-14T00:04:35.149Z,100787.00
2022-12-14T00:07:03.487Z,100777.38
2022-12-14T00:09:31.704Z,100774.03
2022-12-14T00:12:00.186Z,100775.78
2022-12-14T00:14:29.802Z,100764.84
2022-12-14T00:16:58.179Z,100765.97
2022-12-14T00:19:26.828Z,100764.69
2022-12-14T00:21:55.057Z,100761.88
2022-12-14T00:24:23.279Z,100764.00
2022-12-14T00:26:51.622Z,100759.84
2022-12-14T00:29:19.902Z,100759.69
2022-12-14T00:31:51.149Z,100764.00
2022-12-14T00:34:19.430Z,100769.06
2022-12-14T00:36:47.657Z,100765.34
2022-12-14T00:39:16.013Z,100765.28
2022-12-14T00:41:44.477Z,100767.50
2022-12-14T00:44:12.706Z,100769.78
2022-12-14T00:46:41.374Z,100763.44
2022-12-14T00:49:11.861Z,100764.06
2022-12-14T00:51:40.311Z,100761.94
2022-12-14T00:54:08.568Z,100753.13
2022-12-14T00:56:36.856Z,100756.22
2022-12-14T00:59:05.367Z,100758.34
2022-12-14T01:01:33.737Z,100751.88
2022-12-14T01:04:16.064Z,100745.25
2022-12-14T01:06:47.167Z,100744.72
2022-12-14T01:09:15.652Z,100742.59
2022-12-14T01:11:44.691Z,100735.16
2022-12-14T01:14:16.071Z,100738.16
2022-12-14T01:16:44.512Z,100730.16
2022-12-14T01:19:14.459Z,100729.56
2022-12-14T01:21:43.292Z,100730.47
2022-12-14T01:24:12.914Z,100730.28
2022-12-14T01:26:41.840Z,100725.69
2022-12-14T01:29:11.468Z,100722.66
2022-12-14T01:31:40.250Z,100725.03
2022-12-14T01:34:09.485Z,100719.75
2022-12-14T01:36:38.917Z,100716.91
2022-12-14T01:39:14.461Z,100713.00
2022-12-14T01:41:45.396Z,100711.03
2022-12-14T01:44:58.160Z,100716.28
2022-12-14T01:47:38.892Z,100720.41
2022-12-14T01:50:14.330Z,100717.47
2022-12-14T01:52:46.636Z,100714.56
2022-12-14T01:55:22.076Z,100715.06
2022-12-14T01:57:55.699Z,100702.88
2022-12-14T02:00:24.564Z,100700.13
2022-12-14T02:02:58.822Z,100704.09
2022-12-14T02:05:27.924Z,100702.13
2022-12-14T02:07:57.454Z,100695.75
2022-12-14T02:10:29.387Z,100692.44
2022-12-14T02:13:05.789Z,100689.81
2022-12-14T02:15:35.955Z,100685.81
2022-12-14T02:18:07.246Z,100683.66
2022-12-14T02:20:45.175Z,100691.03
2022-12-14T02:23:56.131Z,100683.28
2022-12-14T02:26:59.502Z,100687.97
2022-12-14T02:29:50.366Z,100691.94
2022-12-14T02:32:39.791Z,100690.75
2022-12-14T02:35:19.137Z,100693.13
2022-12-14T02:37:57.335Z,100683.28
2022-12-14T02:40:36.277Z,100688.03
2022-12-14T02:43:17.564Z,100686.75
2022-12-14T02:45:55.890Z,100676.94
2022-12-14T02:48:28.222Z,100685.84
2022-12-14T02:51:02.779Z,100674.44
2022-12-14T02:53:37.825Z,100673.25
2022-12-14T02:56:11.603Z,100674.63
2022-12-14T02:58:46.564Z,100673.66
2022-12-14T03:01:20.759Z,100665.13
2022-12-14T03:03:49.557Z,100662.69
2022-12-14T03:06:26.936Z,100669.06
2022-12-14T03:08:59.935Z,100670.25
2022-12-14T03:11:36.702Z,100661.00
2022-12-14T03:14:11.845Z,100663.88
2022-12-14T03:16:45.537Z,100660.03
2022-12-14T03:19:21.034Z,100661.28
2022-12-14T03:21:54.681Z,100640.47
2022-12-14T03:24:27.443Z,100642.84
2022-12-14T03:27:03.574Z,100645.97
2022-12-14T03:29:39.356Z,100648.50
2022-12-14T03:32:14.089Z,100644.19
2022-12-14T03:34:49.512Z,100637.31
2022-12-14T03:37:23.673Z,100637.72
2022-12-14T03:39:52.638Z,100638.28
2022-12-14T03:42:25.338Z,100637.97
2022-12-14T03:45:03.535Z,100627.66
2022-12-14T03:47:55.175Z,100641.31
2022-12-14T03:50:30.939Z,100637.41
2022-12-14T03:53:06.901Z,100635.91
2022-12-14T03:55:44.249Z,100639.47
2022-12-14T03:58:33.833Z,100633.50
2022-12-14T04:01:08.837Z,100628.28
2022-12-14T04:03:51.222Z,100626.53
2022-12-14T04:06:28.763Z,100618.56
2022-12-14T04:09:07.393Z,100626.03
2022-12-14T04:12:10.796Z,100626.59
2022-12-14T04:15:03.684Z,100618.41
2022-12-14T04:17:54.810Z,100609.41
2022-12-14T04:20:29.926Z,100612.94
2022-12-14T04:23:06.517Z,100603.88
2022-12-14T04:25:57.565Z,100597.59
2022-12-14T04:28:50.593Z,100597.38
2022-12-14T04:31:22.686Z,100594.75
2022-12-14T04:33:56.003Z,100588.00
2022-12-14T04:36:30.486Z,100592.28
2022-12-14T04:39:03.972Z,100582.91
2022-12-14T04:41:37.764Z,100583.78
2022-12-14T04:44:18.426Z,100583.09
2022-12-14T04:46:47.941Z,100581.53
2022-12-14T04:49:28.244Z,100585.06
2022-12-14T04:52:05.988Z,100583.50
2022-12-14T04:54:40.062Z,100577.84
2022-12-14T04:57:19.119Z,100573.94
2022-12-14T04:59:48.459Z,100573.16
2022-12-14T05:02:24.646Z,100573.06
2022-12-14T05:05:06.561Z,100566.88
2022-12-14T05:07:50.913Z,100563.31
2022-12-14T05:10:24.215Z,100562.34
2022-12-14T05:13:03.004Z,100556.47
2022-12-14T05:15:37.163Z,100551.97
2022-12-14T05:18:07.145Z,100555.50
2022-12-14T05:20:35.358Z,100549.72
2022-12-14T05:23:05.021Z,100555.28
2022-12-14T05:25:33.226Z,100553.91
2022-12-14T05:28:01.545Z,100545.38
2022-12-14T05:30:29.893Z,100550.56
2022-12-14T05:32:58.720Z,100540.28
2022-12-14T05:35:26.985Z,100547.72
2022-12-14T05:37:55.268Z,100544.97
2022-12-14T05:40:25.558Z,100534.59
2022-12-14T05:42:55.876Z,100542.81
2022-12-14T05:45:24.390Z,100543.97
2022-12-14T05:47:52.616Z,100541.81
2022-12-14T05:50:20.871Z,100533.88
2022-12-14T05:52:49.147Z,100529.22
2022-12-14T05:55:17.519Z,100527.47
2022-12-14T05:57:47.206Z,100523.94
2022-12-14T06:00:16.923Z,100527.94
2022-12-14T06:02:45.468Z,100518.34
2022-12-14T06:05:13.812Z,100525.31
2022-12-14T06:07:42.015Z,100531.97
2022-12-14T06:10:11.126Z,100530.41
2022-12-14T06:12:43.698Z,100527.94
2022-12-14T06:15:14.082Z,100522.19
2022-12-14T06:17:44.461Z,100516.41
2022-12-14T06:20:13.679Z,100512.88
2022-12-14T06:22:47.420Z,100510.22
2022-12-14T06:25:16.306Z,100513.56
2022-12-14T06:27:44.513Z,100509.16
2022-12-14T06:30:15.741Z,100513.16
2022-12-14T06:32:44.000Z,100501.97
2022-12-14T06:35:12.528Z,100505.31
2022-12-14T06:37:40.869Z,100503.53
2022-12-14T06:40:11.127Z,100498.56
2022-12-14T06:42:39.440Z,100497.88
2022-12-14T06:45:09.128Z,100499.75
2022-12-14T06:47:38.928Z,100504.06
2022-12-14T06:50:08.075Z,100512.59
2022-12-14T06:52:37.533Z,100503.06
2022-12-14T06:55:07.736Z,100491.69
2022-12-14T06:57:36.354Z,100500.41
2022-12-14T07:00:05.770Z,100501.97
2022-12-14T07:02:34.302Z,100494.16
2022-12-14T07:05:04.397Z,100493.06
2022-12-14T07:07:33.698Z,100503.91
2022-12-14T07:10:02.411Z,100505.38
2022-12-14T07:12:30.699Z,100504.59
2022-12-14T07:14:59.716Z,100507.03
2022-12-14T07:17:29.104Z,100505.06
2022-12-14T07:19:57.426Z,100496.44
2022-12-14T07:22:27.111Z,100492.03
2022-12-14T07:24:55.439Z,100489.41
2022-12-14T07:27:24.811Z,100495.94
2022-12-14T07:29:53.346Z,100489.97
2022-12-14T07:32:21.899Z,100497.38
2022-12-14T07:34:53.751Z,100500.72
2022-12-14T07:37:24.362Z,100494.50
2022-12-14T07:39:56.293Z,100495.19
2022-12-14T07:42:25.022Z,100490.59
2022-12-14T07:44:53.775Z,100489.50
2022-12-14T07:47:22.189Z,100491.94
2022-12-14T07:49:50.798Z,100484.41
2022-12-14T07:52:23.056Z,100490.38
2022-12-14T07:54:53.625Z,100491.28
2022-12-14T07:57:22.518Z,100493.91
2022-12-14T07:59:57.137Z,100487.06
2022-12-14T08:02:25.856Z,100487.19
2022-12-14T08:04:54.325Z,100492.34
2022-12-14T08:07:22.674Z,100487.38
2022-12-14T08:09:50.926Z,100495.00
2022-12-14T08:12:20.644Z,100483.06
2022-12-14T08:14:49.995Z,100488.34
2022-12-14T08:17:18.311Z,100487.56
2022-12-14T08:19:46.562Z,100495.44
2022-12-14T08:22:15.089Z,100494.50
2022-12-14T08:24:43.438Z,100496.72
2022-12-14T08:27:17.886Z,100492.50
2022-12-14T08:29:47.591Z,100495.16
2022-12-14T08:32:15.995Z,100497.13
2022-12-14T08:34:44.570Z,100489.78
2022-12-14T08:37:12.798Z,100481.81
2022-12-14T08:39:41.044Z,100477.66
2022-12-14T08:42:09.323Z,100484.03
2022-12-14T08:44:37.673Z,100478.50
2022-12-14T08:47:07.387Z,100488.09
2022-12-14T08:49:36.077Z,100483.38
2022-12-14T08:52:04.335Z,100481.81
2022-12-14T08:54:32.837Z,100468.72
2022-12-14T08:57:01.221Z,100469.09
2022-12-14T08:59:59.391Z,100469.69
2022-12-14T09:02:20.937Z,100468.53
2022-12-14T09:04:49.617Z,100468.13
2022-12-14T09:07:17.988Z,100467.72
2022-12-14T09:09:46.267Z,100475.78
2022-12-14T09:12:14.546Z,100477.81
2022-12-14T09:14:46.492Z,100480.69
2022-12-14T09:17:19.864Z,100477.72
2022-12-14T09:19:48.128Z,100484.25
2022-12-14T09:22:17.098Z,100484.81
2022-12-14T09:24:45.459Z,100489.09
2022-12-14T09:27:13.735Z,100485.91
2022-12-14T09:29:42.062Z,100469.72
2022-12-14T09:32:12.952Z,100481.56
2022-12-14T09:34:42.680Z,100470.25
2022-12-14T09:37:11.096Z,100470.34
2022-12-14T09:39:39.372Z,100473.25
2022-12-14T09:42:22.187Z,100469.31
2022-12-14T09:44:59.806Z,100467.19
2022-12-14T09:47:34.195Z,100463.47
2022-12-14T09:50:07.732Z,100467.81
2022-12-14T09:52:42.013Z,100460.06
2022-12-14T09:55:22.783Z,100463.56
2022-12-14T09:57:55.156Z,100463.56
2022-12-14T10:00:23.730Z,100456.72
2022-12-14T10:03:31.969Z,100454.31
2022-12-14T10:06:29.206Z,100444.19
2022-12-14T10:09:06.899Z,100435.81
2022-12-14T10:11:47.235Z,100444.72
2022-12-14T10:14:23.339Z,100443.38
2022-12-14T10:17:01.011Z,100442.75
2022-12-14T10:19:40.689Z,100430.94
2022-12-14T10:22:16.494Z,100433.94
2022-12-14T10:24:49.172Z,100424.81
2022-12-14T10:27:23.777Z,100431.06
2022-12-14T10:30:01.249Z,100423.03
2022-12-14T10:32:36.693Z,100432.00
2022-12-14T10:35:16.125Z,100431.38
2022-12-14T10:37:50.319Z,100434.19
2022-12-14T10:40:33.820Z,100438.59
2022-12-14T10:43:34.557Z,100434.44
2022-12-14T10:46:15.015Z,100434.91
2022-12-14T10:48:54.641Z,100435.16
2022-12-14T10:51:31.757Z,100437.78
2022-12-14T10:54:11.803Z,100419.97
2022-12-14T10:56:43.403Z,100426.75
2022-12-14T10:59:35.150Z,100429.66
2022-12-14T11:02:11.148Z,100424.69
2022-12-14T11:04:46.191Z,100423.25
2022-12-14T11:07:17.418Z,100429.50
2022-12-14T11:09:47.583Z,100415.16
2022-12-14T11:12:23.607Z,100425.75
2022-12-14T11:14:58.442Z,100420.72
2022-12-14T11:17:37.103Z,100415.59
2022-12-14T11:20:22.215Z,100420.84
2022-12-14T11:22:53.451Z,100422.78
2022-12-14T11:25:38.569Z,100433.25
2022-12-14T11:28:25.668Z,100421.41
2022-12-14T11:30:58.997Z,100413.97
2022-12-14T11:33:34.299Z,100416.66
2022-12-14T11:36:02.865Z,100415.22
2022-12-14T11:38:32.827Z,100404.47
2022-12-14T11:41:10.986Z,100408.22
2022-12-14T11:43:41.211Z,100408.38
2022-12-14T11:46:09.739Z,100403.50
2022-12-14T11:48:52.125Z,100401.25
2022-12-14T11:51:20.684Z,100392.88
2022-12-14T11:54:04.277Z,100394.78
2022-12-14T11:56:37.822Z,100399.34
2022-12-14T11:59:06.192Z,100401.41
2022-12-14T12:01:34.698Z,100405.06
2022-12-14T12:04:03.918Z,100395.97
2022-12-14T12:06:33.156Z,100402.28
2022-12-14T12:09:04.350Z,100406.03
2022-12-14T12:11:36.969Z,100398.63
2022-12-14T12:14:15.018Z,100396.28
2022-12-14T12:16:45.857Z,100398.22
2022-12-14T12:19:24.325Z,100395.00
2022-12-14T12:21:54.924Z,100394.34
2022-12-14T12:24:28.409Z,100393.69
2022-12-14T12:27:00.228Z,100386.22
2022-12-14T12:29:33.083Z,100387.28
2022-12-14T12:32:08.790Z,100386.66
2022-12-14T12:34:45.428Z,100388.72
2022-12-14T12:37:26.418Z,100380.50
2022-12-14T12:40:02.130Z,100385.00
2022-12-14T12:42:43.310Z,100379.22
2022-12-14T12:45:20.781Z,100377.78
2022-12-14T12:47:57.145Z,100381.59
2022-12-14T12:50:31.678Z,100380.84
2022-12-14T12:53:04.544Z,100387.13
2022-12-14T12:55:37.771Z,100381.09
2022-12-14T12:58:10.382Z,100372.50
2022-12-14T13:00:40.652Z,100368.31
2022-12-14T13:03:14.745Z,100371.75
2022-12-14T13:05:47.227Z,100365.13
2022-12-14T13:08:25.368Z,100363.78
2022-12-14T13:13:52.704Z,100371.81
2022-12-14T13:16:27.759Z,100357.56
2022-12-14T13:19:25.423Z,100361.22
2022-12-14T13:21:55.113Z,100355.91
2022-12-14T13:24:25.595Z,100350.00
2022-12-14T13:27:48.273Z,100348.97
2022-12-14T13:30:38.735Z,100346.84
2022-12-14T13:33:30.212Z,100351.47
2022-12-14T13:36:46.856Z,100345.78
2022-12-14T13:39:58.098Z,100349.47
2022-12-14T13:42:37.581Z,100348.97
2022-12-14T13:45:17.227Z,100356.59
2022-12-14T13:47:53.974Z,100347.97
2022-12-14T13:50:37.003Z,100355.97
2022-12-14T13:53:15.073Z,100359.28
2022-12-14T13:55:52.080Z,100358.56
2022-12-14T13:58:23.872Z,100360.28
2022-12-14T14:01:01.307Z,100362.69
2022-12-14T14:04:22.412Z,100359.94
2022-12-14T14:06:51.906Z,100349.00
2022-12-14T14:10:01.278Z,100349.72
2022-12-14T14:12:45.052Z,100348.06
2022-12-14T14:18:43.046Z,100352.72
2022-12-14T14:21:58.957Z,100358.22
2022-12-14T14:24:30.250Z,100365.00
2022-12-14T14:27:12.237Z,100358.09
2022-12-14T14:29:46.401Z,100359.34
2022-12-14T14:32:38.691Z,100361.31
2022-12-14T14:35:21.186Z,100367.56
2022-12-14T14:37:59.523Z,100369.44
2022-12-14T14:41:06.372Z,100368.91
2022-12-14T14:43:29.591Z,100375.22
2022-12-14T14:46:01.660Z,100366.84
2022-12-14T14:48:35.259Z,100363.72
2022-12-14T14:51:19.124Z,100372.84
2022-12-14T14:53:50.264Z,100370.69
2022-12-14T14:56:38.149Z,100371.88
2022-12-14T14:59:50.535Z,100381.44
2022-12-14T15:02:42.258Z,100381.75
2022-12-14T15:08:20.024Z,100375.47
2022-12-14T15:10:51.489Z,100374.28
2022-12-14T15:13:24.590Z,100381.69
2022-12-14T15:15:56.638Z,100380.59
2022-12-14T15:18:28.629Z,100375.88
2022-12-14T15:21:02.150Z,100385.69
2022-12-14T15:23:37.572Z,100381.72
2022-12-14T15:26:17.212Z,100389.69
2022-12-14T15:28:50.573Z,100397.69
2022-12-14T15:31:21.161Z,100391.31
2022-12-14T15:33:50.390Z,100400.38
2022-12-14T15:36:20.530Z,100396.53
2022-12-14T15:38:55.261Z,100406.63
2022-12-14T15:41:27.585Z,100395.50
2022-12-14T15:44:00.098Z,100394.66
2022-12-14T15:46:30.817Z,100385.75
2022-12-14T15:49:01.110Z,100383.50
2022-12-14T15:51:33.780Z,100378.56
2022-12-14T15:54:05.161Z,100387.22
2022-12-14T15:56:38.052Z,100386.75
2022-12-14T15:59:16.940Z,100396.53
2022-12-14T16:01:54.252Z,100396.22
2022-12-14T16:04:27.705Z,100386.94
2022-12-14T16:07:08.194Z,100391.66
2022-12-14T16:09:41.154Z,100389.91
2022-12-14T16:12:19.072Z,100393.50
2022-12-14T16:14:54.390Z,100393.09
2022-12-14T16:17:26.596Z,100392.69
2022-12-14T16:20:00.287Z,100396.78
2022-12-14T16:22:31.231Z,100401.56
2022-12-14T16:25:18.088Z,100400.50
2022-12-14T16:27:50.444Z,100389.78
2022-12-14T16:30:24.016Z,100393.78
2022-12-14T16:32:55.291Z,100397.03
2022-12-14T16:35:26.030Z,100395.97
2022-12-14T16:37:56.494Z,100398.19
2022-12-14T16:40:34.832Z,100398.19
2022-12-14T16:43:07.508Z,100396.44
2022-12-14T16:46:15.036Z,100394.25
2022-12-14T16:48:50.237Z,100393.84
2022-12-14T16:52:05.058Z,100389.72
2022-12-14T16:54:26.802Z,100391.28
2022-12-14T16:56:59.956Z,100395.25
2022-12-14T16:59:41.792Z,100396.69
2022-12-14T17:02:32.020Z,100392.28
2022-12-14T17:05:04.890Z,100393.97
2022-12-14T17:07:34.288Z,100388.22
2022-12-14T17:10:02.564Z,100400.66
2022-12-14T17:12:30.902Z,100384.66
2022-12-14T17:15:00.826Z,100383.16
2022-12-14T17:17:34.412Z,100382.28
2022-12-14T17:20:07.898Z,100383.06
2022-12-14T17:22:38.982Z,100391.44
2022-12-14T17:25:08.228Z,100387.22
2022-12-14T17:27:36.612Z,100383.78
2022-12-14T17:30:08.727Z,100389.03
2022-12-14T17:32:37.231Z,100393.03
2022-12-14T17:35:09.135Z,100386.69
2022-12-14T17:37:37.628Z,100383.78
2022-12-14T17:40:08.054Z,100384.31
2022-12-14T17:42:39.147Z,100389.66
2022-12-14T17:45:21.846Z,100391.81
2022-12-14T17:47:50.521Z,100384.84
2022-12-14T17:50:20.223Z,100388.13
2022-12-14T17:52:50.276Z,100393.13
2022-12-14T17:55:21.163Z,100389.53
2022-12-14T17:57:50.763Z,100387.69
2022-12-14T18:00:41.223Z,100389.19
2022-12-14T18:03:12.697Z,100394.13
2022-12-14T18:05:48.625Z,100397.50
2022-12-14T18:08:17.872Z,100397.41
2022-12-14T18:10:47.083Z,100389.81
2022-12-14T18:13:15.810Z,100395.97
2022-12-14T18:15:49.847Z,100399.75
2022-12-14T18:18:27.606Z,100406.00
2022-12-14T18:21:00.349Z,100407.75
2022-12-14T18:23:30.729Z,100406.88
2022-12-14T18:26:02.775Z,100404.59
2022-12-14T18:28:31.040Z,100407.28
2022-12-14T18:31:04.524Z,100417.72
2022-12-14T18:33:34.533Z,100417.78
2022-12-14T18:36:03.331Z,100434.97
2022-12-14T18:38:35.612Z,100425.63
2022-12-14T18:41:04.147Z,100427.28
2022-12-14T18:43:36.748Z,100422.13
2022-12-14T18:46:10.073Z,100417.06
2022-12-14T18:48:39.030Z,100424.56
2022-12-14T18:51:08.653Z,100424.31
2022-12-14T18:53:36.997Z,100420.69
2022-12-14T18:56:10.512Z,100423.13
2022-12-14T18:58:42.127Z,100405.00
2022-12-14T19:01:18.183Z,100416.50
2022-12-14T19:03:46.932Z,100417.38
2022-12-14T19:06:43.687Z,100412.06
2022-12-14T19:09:06.496Z,100420.38
2022-12-14T19:11:39.480Z,100418.00
2022-12-14T19:14:08.034Z,100409.72
2022-12-14T19:16:37.968Z,100405.88
2022-12-14T19:19:06.346Z,100407.28
2022-12-14T19:21:34.632Z,100418.94
2022-12-14T19:24:04.603Z,100405.22
2022-12-14T19:26:32.951Z,100415.34
2022-12-14T19:29:01.435Z,100421.41
2022-12-14T19:31:30.293Z,100425.41
2022-12-14T19:34:00.080Z,100409.63
2022-12-14T19:36:28.338Z,100410.91
2022-12-14T19:38:57.297Z,100408.63
2022-12-14T19:41:25.655Z,100408.28
2022-12-14T19:43:56.744Z,100417.41
2022-12-14T19:46:25.380Z,100423.13
2022-12-14T19:48:53.872Z,100427.47
2022-12-14T19:51:23.515Z,100424.72
2022-12-14T19:53:52.928Z,100422.13
2022-12-14T19:56:21.332Z,100422.63
2022-12-14T19:58:50.423Z,100422.81
2022-12-14T20:01:19.309Z,100418.75
2022-12-14T20:03:49.100Z,100420.69
2022-12-14T20:06:17.457Z,100419.88
2022-12-14T20:08:49.628Z,100419.19
2022-12-14T20:11:18.291Z,100411.31
2022-12-14T20:13:49.427Z,100418.03
2022-12-14T20:16:22.591Z,100417.16
2022-12-14T20:18:50.952Z,100420.59
2022-12-14T20:21:22.394Z,100427.47
2022-12-14T20:23:52.282Z,100426.66
2022-12-14T20:26:23.317Z,100416.28
2022-12-14T20:28:54.851Z,100415.41
2022-12-14T20:31:24.219Z,100416.44
2022-12-14T20:33:53.078Z,100430.28
2022-12-14T20:36:22.601Z,100430.53
2022-12-14T20:38:57.797Z,100427.66
2022-12-14T20:41:26.823Z,100434.91
2022-12-14T20:43:57.220Z,100439.13
2022-12-14T20:46:29.732Z,100448.00
2022-12-14T20:49:01.500Z,100453.56
2022-12-14T20:51:31.889Z,100458.91
2022-12-14T20:54:02.527Z,100463.38
2022-12-14T20:56:30.935Z,100460.03
2022-12-14T20:58:59.577Z,100464.59
2022-12-14T21:01:28.439Z,100465.66
2022-12-14T21:03:57.724Z,100460.84
2022-12-14T21:06:26.284Z,100458.44
2022-12-14T21:09:05.379Z,100454.59
2022-12-14T21:11:55.002Z,100457.66
2022-12-14T21:14:25.652Z,100466.94
2022-12-14T21:16:54.371Z,100460.06
2022-12-14T21:19:23.259Z,100456.06
2022-12-14T21:21:54.068Z,100458.69
2022-12-14T21:25:00.995Z,100456.91
2022-12-14T21:27:19.117Z,100461.19
2022-12-14T21:29:48.379Z,100461.97
2022-12-14T21:32:18.210Z,100466.38
2022-12-14T21:34:47.522Z,100457.78
2022-12-14T21:37:16.531Z,100466.91
2022-12-14T21:39:51.959Z,100468.28
2022-12-14T21:42:24.028Z,100469.66
2022-12-14T21:44:54.300Z,100468.69
2022-12-14T21:47:26.353Z,100467.63
2022-12-14T21:49:55.724Z,100469.25
2022-12-14T21:52:28.247Z,100462.38
2022-12-14T21:54:58.991Z,100461.31
2022-12-14T21:57:49.421Z,100475.28
2022-12-14T22:00:19.896Z,100478.84
2022-12-14T22:02:48.341Z,100469.16
2022-12-14T22:05:17.121Z,100482.56
2022-12-14T22:07:45.400Z,100499.56
2022-12-14T22:10:13.699Z,100496.47
2022-12-14T22:12:43.407Z,100498.22
2022-12-14T22:15:12.304Z,100481.00
2022-12-14T22:17:40.612Z,100479.91
2022-12-14T22:20:11.100Z,100476.97
2022-12-14T22:22:40.312Z,100477.44
2022-12-14T22:25:09.792Z,100480.69
2022-12-14T22:27:38.081Z,100481.47
2022-12-14T22:30:09.564Z,100475.25
2022-12-14T22:32:38.362Z,100483.47
2022-12-14T22:35:09.588Z,100485.81
2022-12-14T22:37:38.187Z,100483.59
2022-12-14T22:40:08.464Z,100500.38
2022-12-14T22:42:37.005Z,100501.19
2022-12-14T22:45:07.799Z,100490.72
2022-12-14T22:47:36.064Z,100489.84
2022-12-14T22:50:04.835Z,100497.56
2022-12-14T22:52:33.165Z,100494.63
2022-12-14T22:55:01.883Z,100498.63
2022-12-14T22:57:31.342Z,100503.50
2022-12-14T23:00:11.338Z,100514.47
2022-12-14T23:02:41.475Z,100509.22
2022-12-14T23:05:12.536Z,100519.47
2022-12-14T23:07:42.743Z,100522.00
2022-12-14T23:10:28.731Z,100515.81
2022-12-14T23:13:14.513Z,100516.25
2022-12-14T23:16:01.353Z,100513.38
2022-12-14T23:18:46.939Z,100512.25
2022-12-14T23:21:33.244Z,100506.94
2022-12-14T23:24:18.941Z,100513.22
2022-12-14T23:27:09.412Z,100505.69
2022-12-14T23:29:56.325Z,100520.88
2022-12-14T23:32:43.541Z,100518.16
2022-12-14T23:35:29.414Z,100518.16
2022-12-14T23:38:15.446Z,100521.44
2022-12-14T23:41:01.053Z,100519.50
2022-12-14T23:43:47.194Z,100519.69
2022-12-14T23:46:33.068Z,100513.34
2022-12-14T23:49:20.210Z,100523.47
2022-12-14T23:52:06.214Z,100517.28
2022-12-14T23:54:51.802Z,100518.16
2022-12-14T23:57:37.751Z,100516.56
